createdAt,value
2022-08-25T00:01:27.880Z,9.50
2022-08-25T00:03:58.866Z,3.00
2022-08-25T00:06:26.323Z,2.90
2022-08-25T00:08:53.055Z,3.08
2022-08-25T00:11:23.827Z,7.18
2022-08-25T00:13:54.628Z,3.55
2022-08-25T00:16:22.703Z,3.80
2022-08-25T00:18:52.595Z,4.75
2022-08-25T00:21:19.358Z,4.60
2022-08-25T00:23:46.508Z,2.80
2022-08-25T00:26:14.939Z,4.40
2022-08-25T00:28:41.911Z,3.80
2022-08-25T00:31:12.941Z,8.52
2022-08-25T00:33:39.598Z,10.25
2022-08-25T00:36:06.410Z,9.57
2022-08-25T00:38:33.478Z,6.88
2022-08-25T00:41:06.097Z,6.53
2022-08-25T00:43:41.675Z,6.63
2022-08-25T00:46:09.939Z,3.10
2022-08-25T00:48:38.843Z,4.45
2022-08-25T00:51:09.725Z,4.32
2022-08-25T00:53:36.624Z,3.70
2022-08-25T00:56:03.794Z,5.85
2022-08-25T00:58:32.273Z,3.15
2022-08-25T01:00:59.688Z,5.78
2022-08-25T01:03:33.413Z,3.42
2022-08-25T01:06:04.305Z,3.70
2022-08-25T01:08:33.041Z,3.70
2022-08-25T01:11:03.462Z,3.17
2022-08-25T01:13:35.241Z,3.65
2022-08-25T01:16:02.505Z,6.05
2022-08-25T01:18:41.574Z,4.07
2022-08-25T01:21:08.154Z,3.92
2022-08-25T01:23:34.776Z,5.63
2022-08-25T01:26:15.726Z,4.60
2022-08-25T01:29:04.134Z,6.03
2022-08-25T01:31:32.148Z,4.03
2022-08-25T01:33:59.200Z,2.97
2022-08-25T01:36:28.591Z,4.18
2022-08-25T01:38:55.351Z,3.22
2022-08-25T01:41:33.964Z,4.05
2022-08-25T01:44:14.119Z,3.63
2022-08-25T01:46:44.200Z,3.90
2022-08-25T01:49:10.809Z,3.67
2022-08-25T01:51:48.742Z,3.55
2022-08-25T01:54:15.469Z,2.93
2022-08-25T01:56:42.123Z,3.35
2022-08-25T01:59:09.363Z,4.83
2022-08-25T02:01:36.132Z,3.88
2022-08-25T02:04:03.612Z,6.77
2022-08-25T02:06:33.135Z,5.90
2022-08-25T02:09:05.179Z,4.03
2022-08-25T02:11:32.294Z,6.93
2022-08-25T02:13:59.507Z,6.17
2022-08-25T02:16:30.604Z,5.63
2022-08-25T02:18:58.255Z,3.40
2022-08-25T02:21:25.516Z,3.47
2022-08-25T02:23:53.075Z,3.23
2022-08-25T02:26:19.975Z,3.60
2022-08-25T02:28:47.683Z,4.03
2022-08-25T02:31:15.475Z,3.20
2022-08-25T02:33:42.157Z,3.73
2022-08-25T02:36:09.445Z,4.10
2022-08-25T02:38:36.846Z,4.83
2022-08-25T02:41:12.522Z,4.87
2022-08-25T02:43:41.387Z,3.93
2022-08-25T02:46:09.575Z,7.97
2022-08-25T02:48:36.695Z,3.43
2022-08-25T02:51:05.752Z,4.63
2022-08-25T02:53:33.431Z,4.40
2022-08-25T02:56:00.766Z,7.30
2022-08-25T02:58:28.974Z,5.97
2022-08-25T03:00:56.583Z,5.60
2022-08-25T03:03:23.290Z,5.23
2022-08-25T03:05:49.907Z,6.47
2022-08-25T03:08:16.551Z,5.43
2022-08-25T03:10:43.412Z,5.37
2022-08-25T03:13:10.135Z,4.80
2022-08-25T03:15:37.777Z,6.03
2022-08-25T03:18:05.925Z,4.87
2022-08-25T03:20:35.563Z,6.80
2022-08-25T03:23:03.912Z,5.47
2022-08-25T03:25:49.229Z,4.87
2022-08-25T03:28:15.866Z,4.70
2022-08-25T03:30:42.838Z,6.00
2022-08-25T03:33:09.893Z,6.10
2022-08-25T03:35:36.674Z,5.37
2022-08-25T03:38:03.601Z,7.03
2022-08-25T03:40:30.397Z,5.50
2022-08-25T03:42:57.176Z,5.20
2022-08-25T03:45:25.456Z,6.10
2022-08-25T03:47:53.223Z,6.57
2022-08-25T03:50:21.903Z,5.60
2022-08-25T03:52:56.698Z,4.97
2022-08-25T03:55:25.095Z,4.87
2022-08-25T03:57:52.665Z,8.33
2022-08-25T04:00:20.627Z,5.33
2022-08-25T04:02:47.323Z,4.57
2022-08-25T04:05:14.505Z,4.70
2022-08-25T04:07:42.548Z,6.43
2022-08-25T04:10:10.620Z,7.07
2022-08-25T04:12:37.809Z,5.83
2022-08-25T04:15:06.107Z,5.67
2022-08-25T04:17:33.366Z,7.37
2022-08-25T04:20:01.948Z,8.77
2022-08-25T04:22:28.870Z,7.13
2022-08-25T04:24:58.010Z,5.67
2022-08-25T04:27:24.775Z,6.67
2022-08-25T04:29:51.427Z,7.43
2022-08-25T04:32:18.026Z,8.33
2022-08-25T04:34:44.659Z,6.73
2022-08-25T04:37:11.467Z,6.33
2022-08-25T04:39:38.109Z,5.93
2022-08-25T04:42:05.072Z,5.50
2022-08-25T04:44:31.885Z,6.20
2022-08-25T04:46:59.429Z,8.80
2022-08-25T04:49:26.632Z,6.40
2022-08-25T04:51:53.594Z,8.70
2022-08-25T04:54:21.871Z,7.30
2022-08-25T04:56:50.187Z,6.43
2022-08-25T04:59:21.039Z,6.23
2022-08-25T05:01:49.676Z,11.30
2022-08-25T05:04:27.691Z,9.70
2022-08-25T05:06:56.482Z,7.10
2022-08-25T05:09:23.351Z,12.80
2022-08-25T05:11:51.785Z,7.53
2022-08-25T05:14:22.119Z,8.97
2022-08-25T05:16:52.577Z,12.40
2022-08-25T05:19:19.395Z,13.17
2022-08-25T05:21:46.013Z,13.57
2022-08-25T05:24:12.612Z,19.27
2022-08-25T05:26:39.632Z,9.23
2022-08-25T05:29:06.871Z,8.30
2022-08-25T05:31:36.373Z,9.30
2022-08-25T05:34:09.258Z,8.97
2022-08-25T05:36:35.926Z,10.30
2022-08-25T05:39:04.197Z,11.13
2022-08-25T05:41:31.471Z,8.30
2022-08-25T05:43:58.912Z,8.13
2022-08-25T05:46:25.769Z,8.07
2022-08-25T05:48:53.962Z,9.87
2022-08-25T05:51:20.763Z,5.83
2022-08-25T05:53:49.602Z,8.87
2022-08-25T05:56:16.939Z,6.77
2022-08-25T05:58:44.246Z,7.33
2022-08-25T06:01:38.106Z,8.23
2022-08-25T06:04:05.398Z,7.63
2022-08-25T06:06:32.219Z,10.07
2022-08-25T06:08:58.886Z,7.97
2022-08-25T06:11:25.500Z,6.72
2022-08-25T06:13:52.107Z,11.77
2022-08-25T06:16:18.748Z,11.20
2022-08-25T06:18:45.985Z,8.68
2022-08-25T06:21:14.792Z,9.27
2022-08-25T06:23:42.061Z,11.27
2022-08-25T06:26:20.618Z,12.05
2022-08-25T06:28:49.045Z,12.50
2022-08-25T06:31:15.766Z,11.45
2022-08-25T06:33:42.908Z,22.60
2022-08-25T06:36:09.567Z,17.20
2022-08-25T06:38:36.318Z,17.05
2022-08-25T06:41:07.442Z,19.13
2022-08-25T06:43:35.088Z,16.77
2022-08-25T06:46:18.095Z,12.73
2022-08-25T06:48:44.787Z,14.98
2022-08-25T06:51:14.917Z,13.00
2022-08-25T06:53:42.800Z,19.60
2022-08-25T06:56:09.655Z,9.80
2022-08-25T06:58:36.752Z,10.27
2022-08-25T07:01:20.509Z,11.57
2022-08-25T07:03:48.238Z,11.48
2022-08-25T07:06:16.596Z,9.18
2022-08-25T07:08:46.336Z,12.77
2022-08-25T07:11:16.416Z,9.82
2022-08-25T07:13:44.943Z,9.88
2022-08-25T07:16:11.898Z,11.70
2022-08-25T07:18:38.687Z,10.07
2022-08-25T07:21:05.826Z,14.95
2022-08-25T07:23:36.153Z,12.15
2022-08-25T07:26:35.975Z,10.02
2022-08-25T07:29:14.619Z,14.07
2022-08-25T07:31:41.618Z,15.63
2022-08-25T07:34:27.355Z,8.88
2022-08-25T07:36:56.104Z,9.18
2022-08-25T07:39:24.228Z,9.63
2022-08-25T07:41:51.876Z,9.07
2022-08-25T07:44:20.267Z,10.43
2022-08-25T07:46:46.986Z,11.95
2022-08-25T07:49:16.751Z,7.63
2022-08-25T07:52:04.271Z,8.20
2022-08-25T07:54:34.478Z,8.73
2022-08-25T07:57:03.423Z,9.18
2022-08-25T07:59:30.865Z,8.40
2022-08-25T08:02:05.775Z,11.35
2022-08-25T08:04:32.400Z,11.30
2022-08-25T08:06:59.242Z,7.80
2022-08-25T08:09:26.884Z,11.20
2022-08-25T08:11:54.411Z,9.57
2022-08-25T08:14:21.199Z,10.63
2022-08-25T08:16:47.876Z,9.15
2022-08-25T08:19:14.574Z,9.00
2022-08-25T08:21:41.641Z,9.73
2022-08-25T08:24:24.938Z,9.23
2022-08-25T08:26:59.089Z,11.95
2022-08-25T08:29:26.799Z,11.35
2022-08-25T08:31:53.745Z,8.95
2022-08-25T08:34:24.868Z,11.30
2022-08-25T08:36:52.290Z,20.00
2022-08-25T08:39:18.856Z,8.68
2022-08-25T08:42:12.658Z,8.18
2022-08-25T08:44:45.860Z,7.35
2022-08-25T08:47:18.860Z,13.73
2022-08-25T08:49:53.558Z,11.75
2022-08-25T08:52:24.110Z,9.77
2022-08-25T08:55:00.352Z,7.30
2022-08-25T08:57:28.972Z,9.68
2022-08-25T09:00:01.493Z,10.10
2022-08-25T09:02:57.447Z,7.95
2022-08-25T09:05:28.798Z,17.52
2022-08-25T09:07:59.812Z,11.15
2022-08-25T09:10:35.568Z,8.70
2022-08-25T09:13:18.935Z,12.98
2022-08-25T09:16:22.402Z,13.35
2022-08-25T09:19:23.350Z,12.98
2022-08-25T09:22:33.554Z,10.98
2022-08-25T09:25:29.514Z,9.55
2022-08-25T09:28:18.591Z,8.32
2022-08-25T09:30:53.620Z,9.35
2022-08-25T09:33:22.669Z,7.60
2022-08-25T09:35:52.025Z,7.22
2022-08-25T09:38:20.863Z,8.45
2022-08-25T09:40:51.343Z,12.23
2022-08-25T09:43:28.686Z,10.05
2022-08-25T09:45:59.485Z,7.40
2022-08-25T09:48:46.332Z,9.70
2022-08-25T09:51:26.103Z,13.20
2022-08-25T09:54:10.427Z,7.32
2022-08-25T09:56:55.555Z,6.65
2022-08-25T09:59:35.201Z,8.38
2022-08-25T10:02:20.950Z,10.20
2022-08-25T10:04:47.652Z,7.55
2022-08-25T10:07:27.639Z,8.63
2022-08-25T10:09:59.515Z,9.02
2022-08-25T10:12:42.506Z,10.27
2022-08-25T10:15:37.177Z,8.23
2022-08-25T10:18:28.404Z,8.65
2022-08-25T10:21:02.951Z,11.90
2022-08-25T10:23:31.741Z,9.63
2022-08-25T10:26:05.211Z,9.43
2022-08-25T10:29:11.740Z,10.07
2022-08-25T10:31:52.091Z,12.15
2022-08-25T10:34:44.727Z,12.20
2022-08-25T10:37:32.639Z,12.20
2022-08-25T10:40:27.472Z,7.53
2022-08-25T10:43:07.553Z,7.63
2022-08-25T10:46:00.890Z,6.85
2022-08-25T10:48:43.875Z,7.13
2022-08-25T10:51:31.258Z,8.98
2022-08-25T10:54:06.975Z,8.40
2022-08-25T10:56:40.128Z,7.35
2022-08-25T10:59:25.615Z,7.40
2022-08-25T11:02:23.449Z,9.18
2022-08-25T11:05:03.343Z,7.97
2022-08-25T11:07:39.830Z,9.18
2022-08-25T11:10:16.697Z,6.95
2022-08-25T11:12:47.635Z,7.63
2022-08-25T11:15:59.972Z,8.63
2022-08-25T11:18:31.864Z,6.65
2022-08-25T11:21:09.500Z,5.93
2022-08-25T11:23:55.277Z,5.93
2022-08-25T11:26:36.583Z,7.82
2022-08-25T11:29:16.987Z,7.93
2022-08-25T11:31:52.758Z,8.07
2022-08-25T11:34:21.440Z,7.57
2022-08-25T11:37:25.539Z,10.60
2022-08-25T11:40:13.557Z,6.82
2022-08-25T11:42:52.916Z,8.02
2022-08-25T11:45:45.763Z,5.70
2022-08-25T11:48:50.539Z,8.73
2022-08-25T11:51:36.556Z,5.25
2022-08-25T11:54:34.362Z,10.88
2022-08-25T11:57:06.338Z,6.00
2022-08-25T11:59:52.971Z,7.55
2022-08-25T12:02:45.175Z,7.28
2022-08-25T12:05:34.704Z,7.30
2022-08-25T12:08:25.115Z,18.95
2022-08-25T12:10:57.011Z,10.57
2022-08-25T12:13:49.023Z,8.38
2022-08-25T12:16:35.297Z,8.93
2022-08-25T12:19:29.903Z,8.50
2022-08-25T12:22:22.122Z,9.10
2022-08-25T12:24:57.911Z,6.13
2022-08-25T12:27:58.120Z,6.35
2022-08-25T12:30:47.010Z,9.73
2022-08-25T12:33:29.722Z,7.07
2022-08-25T12:36:11.116Z,7.38
2022-08-25T12:38:49.587Z,9.02
2022-08-25T12:41:25.927Z,5.85
2022-08-25T12:44:08.690Z,10.00
2022-08-25T12:46:39.286Z,6.25
2022-08-25T12:49:29.994Z,7.82
2022-08-25T12:51:57.322Z,7.47
2022-08-25T12:54:47.538Z,7.88
2022-08-25T12:57:40.486Z,7.50
2022-08-25T13:03:16.898Z,8.57
2022-08-25T13:06:16.443Z,5.90
2022-08-25T13:09:13.189Z,7.43
2022-08-25T13:11:49.512Z,7.78
2022-08-25T13:14:26.870Z,5.80
2022-08-25T13:16:56.186Z,6.68
2022-08-25T13:19:24.216Z,10.65
2022-08-25T13:21:51.546Z,7.07
2022-08-25T13:24:40.362Z,5.80
2022-08-25T13:27:17.967Z,5.53
2022-08-25T13:30:03.836Z,6.22
2022-08-25T13:32:36.505Z,6.13
2022-08-25T13:35:15.063Z,5.78
2022-08-25T13:37:44.324Z,5.78
2022-08-25T13:40:27.400Z,7.53
2022-08-25T13:43:03.581Z,7.95
2022-08-25T13:45:41.271Z,11.13
2022-08-25T13:48:22.703Z,7.57
2022-08-25T13:50:52.711Z,6.03
2022-08-25T13:53:25.826Z,9.73
2022-08-25T13:55:57.103Z,11.73
2022-08-25T13:58:44.712Z,9.65
2022-08-25T14:01:47.388Z,9.65
2022-08-25T14:04:50.680Z,8.57
2022-08-25T14:07:21.157Z,7.20
2022-08-25T14:09:49.638Z,12.80
2022-08-25T14:12:33.557Z,11.10
2022-08-25T14:15:02.310Z,6.47
2022-08-25T14:17:39.543Z,10.13
2022-08-25T14:20:21.803Z,6.10
2022-08-25T14:22:53.267Z,7.72
2022-08-25T14:25:20.607Z,5.53
2022-08-25T14:28:16.445Z,5.25
2022-08-25T14:30:49.186Z,6.70
2022-08-25T14:33:19.812Z,6.03
2022-08-25T14:35:50.323Z,8.23
2022-08-25T14:38:18.862Z,4.07
2022-08-25T14:40:47.965Z,8.48
2022-08-25T14:43:15.563Z,7.38
2022-08-25T14:45:45.634Z,6.50
2022-08-25T14:48:42.835Z,7.50
2022-08-25T14:51:12.023Z,8.35
2022-08-25T14:53:39.356Z,6.57
2022-08-25T14:56:10.192Z,6.80
2022-08-25T14:58:48.460Z,6.40
2022-08-25T15:01:29.530Z,4.60
2022-08-25T15:04:10.350Z,4.60
2022-08-25T15:06:39.336Z,7.30
2022-08-25T15:09:12.926Z,6.30
2022-08-25T15:11:50.684Z,5.50
2022-08-25T15:14:28.971Z,4.95
2022-08-25T15:17:00.760Z,4.50
2022-08-25T15:19:28.342Z,5.55
2022-08-25T15:21:58.158Z,4.55
2022-08-25T15:24:27.350Z,4.85
2022-08-25T15:26:59.400Z,4.28
2022-08-25T15:29:29.958Z,4.63
2022-08-25T15:31:58.403Z,4.43
2022-08-25T15:34:25.347Z,4.85
2022-08-25T15:36:52.183Z,3.65
2022-08-25T15:39:19.603Z,3.30
2022-08-25T15:41:52.172Z,3.47
2022-08-25T15:44:20.214Z,3.58
2022-08-25T15:46:49.808Z,4.78
2022-08-25T15:49:20.621Z,5.07
2022-08-25T15:51:54.624Z,4.80
2022-08-25T15:54:22.833Z,4.10
2022-08-25T15:56:49.859Z,4.65
2022-08-25T15:59:19.286Z,5.82
2022-08-25T16:01:53.337Z,3.85
2022-08-25T16:04:25.328Z,3.47
2022-08-25T16:06:52.611Z,3.60
2022-08-25T16:09:23.064Z,5.18
2022-08-25T16:11:56.930Z,3.47
2022-08-25T16:14:24.884Z,3.85
2022-08-25T16:16:52.498Z,6.35
2022-08-25T16:19:19.179Z,6.20
2022-08-25T16:21:47.195Z,5.18
2022-08-25T16:24:15.839Z,4.32
2022-08-25T16:26:48.158Z,6.68
2022-08-25T16:29:15.567Z,7.78
2022-08-25T16:31:43.544Z,3.90
2022-08-25T16:34:10.317Z,7.15
2022-08-25T16:36:39.392Z,7.30
2022-08-25T16:39:10.106Z,6.50
2022-08-25T16:41:37.273Z,5.32
2022-08-25T16:44:07.805Z,4.20
2022-08-25T16:46:38.545Z,3.90
2022-08-25T16:49:08.045Z,5.90
2022-08-25T16:51:36.091Z,4.57
2022-08-25T16:54:22.793Z,3.70
2022-08-25T16:56:54.753Z,5.05
2022-08-25T16:59:23.339Z,5.95
2022-08-25T17:01:51.305Z,4.55
2022-08-25T17:04:18.295Z,6.22
2022-08-25T17:06:51.810Z,5.05
2022-08-25T17:09:23.986Z,9.40
2022-08-25T17:11:52.589Z,4.60
2022-08-25T17:14:21.585Z,4.60
2022-08-25T17:16:48.566Z,8.57
2022-08-25T17:19:18.946Z,4.88
2022-08-25T17:21:46.706Z,6.30
2022-08-25T17:24:15.085Z,6.78
2022-08-25T17:26:46.276Z,5.55
2022-08-25T17:29:13.180Z,5.57
2022-08-25T17:31:40.396Z,6.50
2022-08-25T17:34:10.268Z,5.18
2022-08-25T17:36:38.535Z,9.18
2022-08-25T17:39:08.910Z,9.38
2022-08-25T17:41:37.708Z,9.63
2022-08-25T17:44:04.951Z,7.15
2022-08-25T17:46:32.064Z,7.68
2022-08-25T17:48:58.783Z,7.20
2022-08-25T17:51:25.730Z,5.90
2022-08-25T17:53:52.719Z,8.98
2022-08-25T17:56:22.050Z,10.48
2022-08-25T17:58:50.583Z,7.85
2022-08-25T18:01:22.325Z,6.07
2022-08-25T18:03:49.655Z,5.20
2022-08-25T18:06:16.789Z,8.70
2022-08-25T18:08:44.483Z,11.95
2022-08-25T18:11:19.503Z,15.45
2022-08-25T18:13:46.224Z,11.32
2022-08-25T18:16:13.497Z,9.55
2022-08-25T18:18:41.139Z,6.47
2022-08-25T18:21:17.159Z,9.90
2022-08-25T18:23:45.716Z,7.03
2022-08-25T18:26:14.378Z,5.93
2022-08-25T18:28:43.935Z,8.55
2022-08-25T18:31:12.068Z,6.72
2022-08-25T18:33:41.941Z,5.60
2022-08-25T18:36:09.749Z,8.30
2022-08-25T18:38:57.830Z,6.25
2022-08-25T18:41:25.707Z,7.85
2022-08-25T18:43:52.949Z,6.80
2022-08-25T18:46:19.762Z,8.68
2022-08-25T18:48:52.878Z,7.10
2022-08-25T18:51:23.254Z,8.05
2022-08-25T18:53:51.137Z,8.15
2022-08-25T18:56:19.100Z,7.43
2022-08-25T18:58:46.762Z,10.52
2022-08-25T19:01:18.466Z,7.50
2022-08-25T19:03:45.667Z,7.65
2022-08-25T19:06:12.499Z,8.93
2022-08-25T19:08:41.611Z,7.20
2022-08-25T19:11:09.602Z,10.75
2022-08-25T19:13:36.548Z,8.85
2022-08-25T19:16:14.003Z,6.82
2022-08-25T19:18:45.543Z,9.93
2022-08-25T19:21:12.430Z,7.10
2022-08-25T19:23:39.122Z,9.35
2022-08-25T19:26:08.640Z,8.90
2022-08-25T19:28:45.706Z,8.50
2022-08-25T19:31:15.520Z,9.30
2022-08-25T19:33:45.492Z,10.93
2022-08-25T19:36:12.869Z,7.10
2022-08-25T19:38:39.993Z,9.00
2022-08-25T19:41:10.395Z,8.18
2022-08-25T19:43:41.425Z,6.85
2022-08-25T19:46:32.647Z,6.72
2022-08-25T19:49:18.754Z,8.13
2022-08-25T19:51:51.326Z,7.07
2022-08-25T19:54:22.034Z,7.95
2022-08-25T19:56:54.926Z,8.07
2022-08-25T19:59:40.803Z,7.22
2022-08-25T20:02:15.770Z,9.38
2022-08-25T20:04:49.893Z,7.53
2022-08-25T20:07:22.688Z,6.90
2022-08-25T20:09:51.966Z,8.35
2022-08-25T20:12:20.181Z,8.48
2022-08-25T20:14:47.879Z,9.48
2022-08-25T20:17:24.332Z,8.43
2022-08-25T20:19:55.477Z,9.35
2022-08-25T20:22:26.310Z,10.05
2022-08-25T20:24:58.579Z,7.82
2022-08-25T20:27:34.485Z,7.32
2022-08-25T20:30:02.684Z,6.85
2022-08-25T20:32:31.395Z,10.27
2022-08-25T20:34:58.018Z,10.25
2022-08-25T20:37:25.615Z,7.97
2022-08-25T20:39:52.770Z,14.90
2022-08-25T20:42:19.699Z,8.07
2022-08-25T20:44:46.983Z,7.20
2022-08-25T20:47:14.893Z,7.53
2022-08-25T20:49:44.398Z,9.52
2022-08-25T20:52:11.873Z,7.43
2022-08-25T20:54:38.610Z,7.80
2022-08-25T20:57:05.275Z,10.23
2022-08-25T20:59:34.794Z,7.72
2022-08-25T21:02:02.104Z,7.35
2022-08-25T21:04:29.939Z,6.55
2022-08-25T21:06:57.682Z,7.97
2022-08-25T21:09:25.366Z,7.40
2022-08-25T21:11:53.755Z,7.95
2022-08-25T21:14:21.242Z,9.10
2022-08-25T21:16:48.810Z,9.18
2022-08-25T21:19:26.598Z,10.65
2022-08-25T21:21:59.538Z,8.18
2022-08-25T21:24:28.270Z,9.68
2022-08-25T21:26:56.727Z,6.88
2022-08-25T21:29:25.879Z,7.03
2022-08-25T21:31:58.571Z,6.60
2022-08-25T21:34:26.406Z,8.25
2022-08-25T21:36:57.575Z,8.55
2022-08-25T21:39:29.447Z,8.50
2022-08-25T21:41:58.408Z,8.45
2022-08-25T21:44:26.828Z,11.35
2022-08-25T21:46:54.128Z,8.18
2022-08-25T21:49:22.065Z,9.77
2022-08-25T21:51:59.258Z,8.63
2022-08-25T21:54:28.585Z,6.78
2022-08-25T21:57:01.478Z,7.20
2022-08-25T21:59:34.102Z,8.70
2022-08-25T22:02:04.044Z,7.10
2022-08-25T22:04:31.911Z,9.50
2022-08-25T22:06:59.220Z,7.35
2022-08-25T22:09:26.565Z,8.98
2022-08-25T22:11:55.539Z,7.22
2022-08-25T22:14:23.352Z,7.35
2022-08-25T22:16:51.755Z,9.00
2022-08-25T22:19:18.510Z,9.52
2022-08-25T22:21:45.596Z,8.73
2022-08-25T22:24:12.226Z,6.88
2022-08-25T22:26:39.129Z,7.22
2022-08-25T22:29:07.471Z,8.73
2022-08-25T22:31:34.983Z,6.45
2022-08-25T22:34:02.933Z,8.63
2022-08-25T22:36:34.823Z,7.40
2022-08-25T22:39:02.250Z,6.10
2022-08-25T22:41:31.422Z,7.72
2022-08-25T22:43:59.970Z,7.35
2022-08-25T22:46:30.025Z,6.85
2022-08-25T22:48:57.394Z,8.38
2022-08-25T22:51:31.413Z,7.82
2022-08-25T22:53:59.589Z,7.05
2022-08-25T22:56:35.802Z,8.57
2022-08-25T22:59:07.629Z,7.00
2022-08-25T23:01:34.885Z,6.43
2022-08-25T23:04:03.181Z,6.15
2022-08-25T23:06:30.520Z,5.35
2022-08-25T23:08:57.447Z,6.70
2022-08-25T23:11:25.245Z,5.97
2022-08-25T23:13:56.030Z,7.35
2022-08-25T23:16:23.493Z,7.13
2022-08-25T23:18:51.209Z,7.55
2022-08-25T23:21:53.320Z,6.88
2022-08-25T23:24:29.242Z,7.30
2022-08-25T23:26:59.555Z,7.00
2022-08-25T23:29:27.557Z,8.23
2022-08-25T23:31:54.582Z,7.93
2022-08-25T23:34:21.685Z,5.97
2022-08-25T23:36:48.922Z,7.72
2022-08-25T23:39:15.518Z,8.23
2022-08-25T23:41:42.347Z,6.63
2022-08-25T23:44:10.087Z,7.57
2022-08-25T23:46:38.726Z,7.65
2022-08-25T23:49:08.314Z,7.47
2022-08-25T23:51:38.313Z,7.70
2022-08-25T23:54:09.656Z,12.05
2022-08-25T23:56:44.502Z,8.05
2022-08-25T23:59:13.027Z,8.98
